createdAt,value
2017-11-25T00:01:24.193Z,2.47
2017-11-25T00:03:52.463Z,2.57
2017-11-25T00:06:20.730Z,2.50
2017-11-25T00:08:49.006Z,2.57
2017-11-25T00:11:17.391Z,2.50
2017-11-25T00:13:45.659Z,2.62
2017-11-25T00:16:13.957Z,2.10
2017-11-25T00:18:42.232Z,1.83
2017-11-25T00:21:10.530Z,2.50
2017-11-25T00:23:38.847Z,3.50
2017-11-25T00:26:07.155Z,3.80
2017-11-25T00:28:35.442Z,2.40
2017-11-25T00:31:04.715Z,2.50
2017-11-25T00:33:33.000Z,2.60
2017-11-25T00:36:01.261Z,1.80
2017-11-25T00:38:29.658Z,1.70
2017-11-25T00:40:57.934Z,1.87
2017-11-25T00:43:26.825Z,1.50
2017-11-25T00:45:55.121Z,1.27
2017-11-25T00:48:23.402Z,1.60
2017-11-25T00:50:51.677Z,1.30
2017-11-25T00:53:19.998Z,1.33
2017-11-25T00:55:48.275Z,1.23
2017-11-25T00:58:16.529Z,1.60
2017-11-25T01:00:44.866Z,1.20
2017-11-25T01:03:13.181Z,1.40
2017-11-25T01:05:42.356Z,1.60
2017-11-25T01:08:10.618Z,1.20
2017-11-25T01:10:38.919Z,2.10
2017-11-25T01:13:07.198Z,2.40
2017-11-25T01:15:35.492Z,1.20
2017-11-25T01:18:03.763Z,1.43
2017-11-25T01:20:32.082Z,1.33
2017-11-25T01:23:00.324Z,1.03
2017-11-25T01:25:28.673Z,1.00
2017-11-25T01:27:56.932Z,1.27
2017-11-25T01:30:25.211Z,1.40
2017-11-25T01:32:53.503Z,1.27
2017-11-25T01:35:21.760Z,1.47
2017-11-25T01:37:50.035Z,1.50
2017-11-25T01:40:18.311Z,2.85
2017-11-25T01:42:46.588Z,2.40
2017-11-25T01:45:14.870Z,1.37
2017-11-25T01:47:43.153Z,1.97
2017-11-25T01:50:11.417Z,1.50
2017-11-25T01:52:39.684Z,1.90
2017-11-25T01:55:07.971Z,2.30
2017-11-25T01:57:36.321Z,1.30
2017-11-25T02:00:05.265Z,1.30
2017-11-25T02:02:33.581Z,1.47
2017-11-25T02:05:01.878Z,2.03
2017-11-25T02:07:30.141Z,1.50
2017-11-25T02:09:58.753Z,2.00
2017-11-25T02:12:26.995Z,1.50
2017-11-25T02:14:55.329Z,1.87
2017-11-25T02:17:23.600Z,1.48
2017-11-25T02:19:51.850Z,1.87
2017-11-25T02:22:20.138Z,1.77
2017-11-25T02:24:48.393Z,1.57
2017-11-25T02:27:16.737Z,1.60
2017-11-25T02:29:45.022Z,1.80
2017-11-25T02:32:13.307Z,1.67
2017-11-25T02:34:41.585Z,1.67
2017-11-25T02:37:09.975Z,1.80
2017-11-25T02:39:39.183Z,1.60
2017-11-25T02:42:07.630Z,1.70
2017-11-25T02:44:35.903Z,1.80
2017-11-25T02:47:04.470Z,2.00
2017-11-25T02:49:32.805Z,2.47
2017-11-25T02:52:01.068Z,2.13
2017-11-25T02:54:29.358Z,1.83
2017-11-25T02:56:57.704Z,2.33
2017-11-25T02:59:26.018Z,2.03
2017-11-25T03:01:54.295Z,2.70
2017-11-25T03:04:22.561Z,2.33
2017-11-25T03:06:50.867Z,2.20
2017-11-25T03:09:19.133Z,2.90
2017-11-25T03:11:47.403Z,2.90
2017-11-25T03:14:15.664Z,2.97
2017-11-25T03:16:43.968Z,3.40
2017-11-25T03:19:12.242Z,2.77
2017-11-25T03:21:40.571Z,3.03
2017-11-25T03:24:08.838Z,3.05
2017-11-25T03:26:37.098Z,3.00
2017-11-25T03:29:05.385Z,2.83
2017-11-25T03:31:33.650Z,2.87
2017-11-25T03:34:01.972Z,2.60
2017-11-25T03:36:30.641Z,2.60
2017-11-25T03:38:58.938Z,2.40
2017-11-25T03:41:27.184Z,1.80
2017-11-25T03:43:55.466Z,2.33
2017-11-25T03:46:23.756Z,1.70
2017-11-25T03:48:52.294Z,1.60
2017-11-25T03:51:20.551Z,1.50
2017-11-25T03:53:48.823Z,1.40
2017-11-25T03:56:17.110Z,1.90
2017-11-25T03:58:45.388Z,2.00
2017-11-25T04:01:13.673Z,1.30
2017-11-25T04:03:41.944Z,1.85
2017-11-25T04:06:10.244Z,1.90
2017-11-25T04:08:38.511Z,1.50
2017-11-25T04:11:06.785Z,1.67
2017-11-25T04:13:35.056Z,2.27
2017-11-25T04:16:03.337Z,2.50
2017-11-25T04:18:31.768Z,2.90
2017-11-25T04:21:00.044Z,3.47
2017-11-25T04:23:28.351Z,2.40
2017-11-25T04:25:56.612Z,2.63
2017-11-25T04:28:25.177Z,2.00
2017-11-25T04:30:53.484Z,2.03
2017-11-25T04:33:21.803Z,1.80
2017-11-25T04:35:50.093Z,1.70
2017-11-25T04:38:18.367Z,2.00
2017-11-25T04:40:46.689Z,1.50
2017-11-25T04:43:14.981Z,1.80
2017-11-25T04:45:43.532Z,1.73
2017-11-25T04:48:11.804Z,1.92
2017-11-25T04:50:40.150Z,2.00
2017-11-25T04:53:08.464Z,1.80
2017-11-25T04:55:36.732Z,2.30
2017-11-25T04:58:05.129Z,1.93
2017-11-25T05:00:33.445Z,2.50
2017-11-25T05:03:01.733Z,1.43
2017-11-25T05:05:30.054Z,2.23
2017-11-25T05:07:58.341Z,2.70
2017-11-25T05:10:26.603Z,2.40
2017-11-25T05:12:54.858Z,2.05
2017-11-25T05:15:23.129Z,2.12
2017-11-25T05:17:51.415Z,2.07
2017-11-25T05:20:19.669Z,2.23
2017-11-25T05:22:47.976Z,2.10
2017-11-25T05:25:16.258Z,2.97
2017-11-25T05:27:44.540Z,3.87
2017-11-25T05:30:12.817Z,3.73
2017-11-25T05:32:41.129Z,3.60
2017-11-25T05:35:09.408Z,4.32
2017-11-25T05:37:37.668Z,4.27
2017-11-25T05:40:05.949Z,1.80
2017-11-25T05:42:34.220Z,1.63
2017-11-25T05:45:02.517Z,1.40
2017-11-25T05:47:30.860Z,1.30
2017-11-25T05:49:59.124Z,1.50
2017-11-25T05:52:27.439Z,1.83
2017-11-25T05:54:55.811Z,2.20
2017-11-25T05:57:24.069Z,2.77
2017-11-25T05:59:52.414Z,3.63
2017-11-25T06:02:20.718Z,2.75
2017-11-25T06:04:48.973Z,2.63
2017-11-25T06:07:17.261Z,2.78
2017-11-25T06:09:45.618Z,2.50
2017-11-25T06:12:13.901Z,2.28
2017-11-25T06:14:42.163Z,2.37
2017-11-25T06:17:10.445Z,2.60
2017-11-25T06:19:39.749Z,2.62
2017-11-25T06:22:08.161Z,2.67
2017-11-25T06:24:36.471Z,2.50
2017-11-25T06:27:05.342Z,2.63
2017-11-25T06:29:33.632Z,2.90
2017-11-25T06:32:01.916Z,2.95
2017-11-25T06:34:30.530Z,3.40
2017-11-25T06:36:58.823Z,2.90
2017-11-25T06:39:27.119Z,3.00
2017-11-25T06:41:55.395Z,2.80
2017-11-25T06:44:23.697Z,2.50
2017-11-25T06:46:51.969Z,2.50
2017-11-25T06:49:20.311Z,2.20
2017-11-25T06:51:48.604Z,2.30
2017-11-25T06:54:16.880Z,2.10
2017-11-25T06:56:45.186Z,2.00
2017-11-25T06:59:13.462Z,2.10
2017-11-25T07:01:42.300Z,2.20
2017-11-25T07:04:10.589Z,1.87
2017-11-25T07:06:38.890Z,1.80
2017-11-25T07:09:07.183Z,2.07
2017-11-25T07:11:35.473Z,1.80
2017-11-25T07:14:03.761Z,1.60
2017-11-25T07:16:32.043Z,1.57
2017-11-25T07:19:00.346Z,1.20
2017-11-25T07:21:28.600Z,1.00
2017-11-25T07:23:56.869Z,1.40
2017-11-25T07:26:25.163Z,1.50
2017-11-25T07:28:53.435Z,2.03
2017-11-25T07:31:21.707Z,1.58
2017-11-25T07:33:49.988Z,1.10
2017-11-25T07:36:18.246Z,1.23
2017-11-25T07:38:46.560Z,0.90
2017-11-25T07:41:14.915Z,1.30
2017-11-25T07:43:43.196Z,2.53
2017-11-25T07:46:11.468Z,1.67
2017-11-25T07:48:39.749Z,1.63
2017-11-25T07:51:08.017Z,1.80
2017-11-25T07:53:36.313Z,1.40
2017-11-25T07:56:05.039Z,1.40
2017-11-25T07:58:33.332Z,1.70
2017-11-25T08:01:01.599Z,2.17
2017-11-25T08:03:29.857Z,1.80
2017-11-25T08:05:58.149Z,2.67
2017-11-25T08:08:26.434Z,2.80
2017-11-25T08:10:54.738Z,2.53
2017-11-25T08:13:22.988Z,1.60
2017-11-25T08:15:51.396Z,2.40
2017-11-25T08:18:19.692Z,2.00
2017-11-25T08:20:47.949Z,1.80
2017-11-25T08:23:16.223Z,1.37
2017-11-25T08:25:44.528Z,1.40
2017-11-25T08:28:12.786Z,1.98
2017-11-25T08:30:41.044Z,1.70
2017-11-25T08:33:09.625Z,2.00
2017-11-25T08:35:37.864Z,1.60
2017-11-25T08:38:06.173Z,1.70
2017-11-25T08:40:34.449Z,1.63
2017-11-25T08:43:02.742Z,1.80
2017-11-25T08:45:31.013Z,1.80
2017-11-25T08:47:59.470Z,1.60
2017-11-25T08:50:27.694Z,1.60
2017-11-25T08:52:56.004Z,1.70
2017-11-25T08:55:24.280Z,1.50
2017-11-25T08:57:52.602Z,1.90
2017-11-25T09:00:20.874Z,2.90
2017-11-25T09:02:49.143Z,2.87
2017-11-25T09:05:17.455Z,2.95
2017-11-25T09:07:46.104Z,2.37
2017-11-25T09:10:14.471Z,1.62
2017-11-25T09:12:42.726Z,1.80
2017-11-25T09:15:11.283Z,2.10
2017-11-25T09:17:39.565Z,1.77
2017-11-25T09:20:07.846Z,2.20
2017-11-25T09:22:36.143Z,2.10
2017-11-25T09:25:04.960Z,1.90
2017-11-25T09:27:33.265Z,3.67
2017-11-25T09:30:01.508Z,2.73
2017-11-25T09:32:29.789Z,2.10
2017-11-25T09:34:58.086Z,2.70
2017-11-25T09:37:26.463Z,2.73
2017-11-25T09:39:54.656Z,2.53
2017-11-25T09:42:23.013Z,2.20
2017-11-25T09:44:51.353Z,2.17
2017-11-25T09:47:20.423Z,2.50
2017-11-25T09:49:48.698Z,2.20
2017-11-25T09:52:16.997Z,2.83
2017-11-25T09:54:45.265Z,2.50
2017-11-25T09:57:13.577Z,2.20
2017-11-25T09:59:41.890Z,2.60
2017-11-25T10:02:10.135Z,3.40
2017-11-25T10:04:38.453Z,3.53
2017-11-25T10:07:06.747Z,3.30
2017-11-25T10:09:35.047Z,4.00
2017-11-25T10:12:03.400Z,4.80
2017-11-25T10:14:31.691Z,5.00
2017-11-25T10:17:00.035Z,4.70
2017-11-25T10:19:29.500Z,4.00
2017-11-25T10:21:57.817Z,3.90
2017-11-25T10:24:26.089Z,4.33
2017-11-25T10:26:54.376Z,4.18
2017-11-25T10:29:22.631Z,4.20
2017-11-25T10:31:50.904Z,4.03
2017-11-25T10:34:19.995Z,4.10
2017-11-25T10:36:48.262Z,4.20
2017-11-25T10:39:16.620Z,4.37
2017-11-25T10:41:44.926Z,4.50
2017-11-25T10:44:13.231Z,4.32
2017-11-25T10:46:41.525Z,4.77
2017-11-25T10:49:09.805Z,4.80
2017-11-25T10:51:38.053Z,5.23
2017-11-25T10:54:06.383Z,4.20
2017-11-25T10:56:34.658Z,5.27
2017-11-25T10:59:03.029Z,5.30
2017-11-25T11:01:31.329Z,4.50
2017-11-25T11:03:59.870Z,4.70
2017-11-25T11:06:28.148Z,4.23
2017-11-25T11:08:56.447Z,4.00
2017-11-25T11:11:24.728Z,3.77
2017-11-25T11:13:53.020Z,4.00
2017-11-25T11:16:21.301Z,4.15
2017-11-25T11:18:49.584Z,2.43
2017-11-25T11:21:17.857Z,2.17
2017-11-25T11:23:46.180Z,2.67
2017-11-25T11:26:14.468Z,2.00
2017-11-25T11:28:42.759Z,1.70
2017-11-25T11:31:11.008Z,1.80
2017-11-25T11:33:39.893Z,2.07
2017-11-25T11:36:08.152Z,2.23
2017-11-25T11:38:40.406Z,2.25
2017-11-25T11:41:08.661Z,2.30
2017-11-25T11:43:37.000Z,2.37
2017-11-25T11:46:05.720Z,2.20
2017-11-25T11:48:34.067Z,2.70
2017-11-25T11:51:02.286Z,2.70
2017-11-25T11:53:30.564Z,2.83
2017-11-25T11:55:58.915Z,2.33
2017-11-25T11:58:27.190Z,3.10
2017-11-25T12:00:55.497Z,2.77
2017-11-25T12:03:23.768Z,3.07
2017-11-25T12:05:52.261Z,3.20
2017-11-25T12:08:20.542Z,3.22
2017-11-25T12:10:48.864Z,2.80
2017-11-25T12:13:17.163Z,3.40
2017-11-25T12:15:45.499Z,5.47
2017-11-25T12:18:13.757Z,2.83
2017-11-25T12:20:42.033Z,2.60
2017-11-25T12:23:10.324Z,2.20
2017-11-25T12:25:38.657Z,1.60
2017-11-25T12:28:06.977Z,1.50
2017-11-25T12:30:36.245Z,2.03
2017-11-25T12:33:04.608Z,2.03
2017-11-25T12:35:32.937Z,1.80
2017-11-25T12:38:01.304Z,1.60
2017-11-25T12:40:29.641Z,1.77
2017-11-25T12:42:58.046Z,1.70
2017-11-25T12:45:26.380Z,2.27
2017-11-25T12:47:54.672Z,2.07
2017-11-25T12:50:22.927Z,1.60
2017-11-25T12:52:51.219Z,1.80
2017-11-25T12:55:19.667Z,1.90
2017-11-25T12:57:47.973Z,1.97
2017-11-25T13:00:16.256Z,2.30
2017-11-25T13:02:44.547Z,2.13
2017-11-25T13:05:12.906Z,1.73
2017-11-25T13:07:41.230Z,2.03
2017-11-25T13:10:09.518Z,2.60
2017-11-25T13:12:37.769Z,2.40
2017-11-25T13:15:06.071Z,2.60
2017-11-25T13:17:34.337Z,2.80
2017-11-25T13:20:02.638Z,2.07
2017-11-25T13:22:30.979Z,1.60
2017-11-25T13:24:59.582Z,2.80
2017-11-25T13:27:27.809Z,2.50
2017-11-25T13:29:56.120Z,2.47
2017-11-25T13:32:24.359Z,2.37
2017-11-25T13:34:52.694Z,2.55
2017-11-25T13:37:21.587Z,2.30
2017-11-25T13:39:49.840Z,1.80
2017-11-25T13:42:18.084Z,2.37
2017-11-25T13:44:46.462Z,2.90
2017-11-25T13:47:14.757Z,2.57
2017-11-25T13:49:43.039Z,4.93
2017-11-25T13:52:11.339Z,3.77
2017-11-25T13:54:39.596Z,3.20
2017-11-25T13:57:07.909Z,3.33
2017-11-25T13:59:36.156Z,5.70
2017-11-25T14:02:04.461Z,7.10
2017-11-25T14:04:32.781Z,2.67
2017-11-25T14:07:01.107Z,2.50
2017-11-25T14:09:29.388Z,3.20
2017-11-25T14:11:57.712Z,3.15
2017-11-25T14:14:25.956Z,6.03
2017-11-25T14:16:54.282Z,6.00
2017-11-25T14:19:22.558Z,10.43
2017-11-25T14:21:50.861Z,4.68
2017-11-25T14:24:19.144Z,5.70
2017-11-25T14:26:47.400Z,3.97
2017-11-25T14:29:15.684Z,4.10
2017-11-25T14:31:43.973Z,3.50
2017-11-25T14:34:12.310Z,3.03
2017-11-25T14:36:40.616Z,3.57
2017-11-25T14:39:08.875Z,4.00
2017-11-25T14:41:37.161Z,3.07
2017-11-25T14:44:05.860Z,3.50
2017-11-25T14:46:34.144Z,3.43
2017-11-25T14:49:02.482Z,3.70
2017-11-25T14:51:30.820Z,3.43
2017-11-25T14:53:59.079Z,3.27
2017-11-25T14:56:27.377Z,4.00
2017-11-25T14:58:56.540Z,3.53
2017-11-25T15:01:24.828Z,4.20
2017-11-25T15:03:53.226Z,3.60
2017-11-25T15:06:21.467Z,2.95
2017-11-25T15:08:49.819Z,4.30
2017-11-25T15:11:18.438Z,3.58
2017-11-25T15:13:46.714Z,4.20
2017-11-25T15:16:14.977Z,4.43
2017-11-25T15:18:43.268Z,4.22
2017-11-25T15:21:12.844Z,4.20
2017-11-25T15:23:41.111Z,4.50
2017-11-25T15:26:09.384Z,4.13
2017-11-25T15:28:37.646Z,4.40
2017-11-25T15:31:05.932Z,4.93
2017-11-25T15:33:34.199Z,3.78
2017-11-25T15:36:02.666Z,3.30
2017-11-25T15:38:31.003Z,4.47
2017-11-25T15:40:59.267Z,4.13
2017-11-25T15:43:27.517Z,4.47
2017-11-25T15:45:55.799Z,3.70
2017-11-25T15:48:24.820Z,4.00
2017-11-25T15:50:53.069Z,7.87
2017-11-25T15:53:21.337Z,10.47
2017-11-25T15:55:50.448Z,10.27
2017-11-25T15:58:18.722Z,6.03
2017-11-25T16:00:47.020Z,4.20
2017-11-25T16:03:15.341Z,2.83
2017-11-25T16:05:43.614Z,2.30
2017-11-25T16:08:12.017Z,2.33
2017-11-25T16:10:40.343Z,2.75
2017-11-25T16:13:16.416Z,2.70
2017-11-25T16:15:45.193Z,2.77
2017-11-25T16:18:13.516Z,2.50
2017-11-25T16:20:41.785Z,1.87
2017-11-25T16:23:10.088Z,2.30
2017-11-25T16:25:38.346Z,1.90
2017-11-25T16:28:06.641Z,2.80
2017-11-25T16:30:34.898Z,2.50
2017-11-25T16:33:04.129Z,2.20
2017-11-25T16:35:33.345Z,2.30
2017-11-25T16:38:01.661Z,2.60
2017-11-25T16:40:29.909Z,2.60
2017-11-25T16:42:58.161Z,3.33
2017-11-25T16:45:26.472Z,2.63
2017-11-25T16:47:54.780Z,2.70
2017-11-25T16:50:23.013Z,2.70
2017-11-25T16:52:51.309Z,3.33
2017-11-25T16:55:19.596Z,2.97
2017-11-25T16:57:47.961Z,2.70
2017-11-25T17:00:16.234Z,2.30
2017-11-25T17:02:44.516Z,2.30
2017-11-25T17:05:13.617Z,2.00
2017-11-25T17:07:41.915Z,2.50
2017-11-25T17:10:10.351Z,2.37
2017-11-25T17:12:38.640Z,2.20
2017-11-25T17:15:06.917Z,2.80
2017-11-25T17:17:35.190Z,2.67
2017-11-25T17:20:03.481Z,2.80
2017-11-25T17:22:31.943Z,3.20
2017-11-25T17:25:00.236Z,3.00
2017-11-25T17:27:28.577Z,3.60
2017-11-25T17:29:59.040Z,3.27
2017-11-25T17:32:27.303Z,3.70
2017-11-25T17:34:55.589Z,3.40
2017-11-25T17:37:23.854Z,3.23
2017-11-25T17:39:52.234Z,3.13
2017-11-25T17:42:20.511Z,3.50
2017-11-25T17:44:48.765Z,3.60
2017-11-25T17:47:17.040Z,3.70
2017-11-25T17:49:45.302Z,4.27
2017-11-25T17:52:13.610Z,3.50
2017-11-25T17:54:42.043Z,4.43
2017-11-25T17:57:10.276Z,3.90
2017-11-25T17:59:38.675Z,3.57
2017-11-25T18:02:06.957Z,4.23
2017-11-25T18:04:35.217Z,4.67
2017-11-25T18:07:03.498Z,4.57
2017-11-25T18:09:31.750Z,4.67
2017-11-25T18:12:00.096Z,3.90
2017-11-25T18:14:28.422Z,3.97
2017-11-25T18:16:56.677Z,3.80
2017-11-25T18:19:24.961Z,3.80
2017-11-25T18:21:53.438Z,4.20
2017-11-25T18:24:21.680Z,3.85
2017-11-25T18:26:50.021Z,3.90
2017-11-25T18:29:18.349Z,4.53
2017-11-25T18:31:46.645Z,5.23
2017-11-25T18:34:14.969Z,5.00
2017-11-25T18:36:43.228Z,5.00
2017-11-25T18:39:11.493Z,4.10
2017-11-25T18:41:39.804Z,4.90
2017-11-25T18:44:08.054Z,4.63
2017-11-25T18:46:36.345Z,4.90
2017-11-25T18:49:05.390Z,4.40
2017-11-25T18:51:33.678Z,4.77
2017-11-25T18:54:01.940Z,5.30
2017-11-25T18:56:30.219Z,5.60
2017-11-25T18:58:58.533Z,5.73
2017-11-25T19:01:26.868Z,5.60
2017-11-25T19:03:55.124Z,4.90
2017-11-25T19:06:23.436Z,5.70
2017-11-25T19:08:51.712Z,5.13
2017-11-25T19:11:19.998Z,5.30
2017-11-25T19:13:48.305Z,4.33
2017-11-25T19:16:16.556Z,5.13
2017-11-25T19:18:44.930Z,4.87
2017-11-25T19:21:13.184Z,4.70
2017-11-25T19:23:41.496Z,3.93
2017-11-25T19:26:09.762Z,4.97
2017-11-25T19:28:38.070Z,4.83
2017-11-25T19:31:06.311Z,4.90
2017-11-25T19:33:34.593Z,4.83
2017-11-25T19:36:02.869Z,5.60
2017-11-25T19:38:31.145Z,5.77
2017-11-25T19:40:59.457Z,5.17
2017-11-25T19:43:27.720Z,4.87
2017-11-25T19:45:56.016Z,5.40
2017-11-25T19:48:24.378Z,7.33
2017-11-25T19:50:52.707Z,5.70
2017-11-25T19:53:20.963Z,5.43
2017-11-25T19:55:49.459Z,4.87
2017-11-25T19:58:17.709Z,5.60
2017-11-25T20:00:46.011Z,5.50
2017-11-25T20:03:14.506Z,5.23
2017-11-25T20:05:42.786Z,5.30
2017-11-25T20:08:11.066Z,6.80
2017-11-25T20:10:39.361Z,6.90
2017-11-25T20:13:07.625Z,6.03
2017-11-25T20:15:35.886Z,6.80
2017-11-25T20:18:04.872Z,6.97
2017-11-25T20:20:33.140Z,6.63
2017-11-25T20:23:01.436Z,6.93
2017-11-25T20:25:29.694Z,7.00
2017-11-25T20:27:57.973Z,6.63
2017-11-25T20:30:26.226Z,6.80
2017-11-25T20:32:54.524Z,9.30
2017-11-25T20:35:22.808Z,9.00
2017-11-25T20:37:51.085Z,7.80
2017-11-25T20:40:19.386Z,7.53
2017-11-25T20:42:48.124Z,9.00
2017-11-25T20:45:16.393Z,8.40
2017-11-25T20:47:44.698Z,10.57
2017-11-25T20:50:13.055Z,11.65
2017-11-25T20:52:41.341Z,9.00
2017-11-25T20:55:09.574Z,9.03
2017-11-25T20:57:37.881Z,9.00
2017-11-25T21:00:06.171Z,8.50
2017-11-25T21:02:34.475Z,16.80
2017-11-25T21:05:02.731Z,10.37
2017-11-25T21:07:31.039Z,8.97
2017-11-25T21:09:59.383Z,9.97
2017-11-25T21:12:27.687Z,9.23
2017-11-25T21:14:55.974Z,11.10
2017-11-25T21:17:24.257Z,10.63
2017-11-25T21:19:52.622Z,9.60
2017-11-25T21:22:20.872Z,8.60
2017-11-25T21:24:49.145Z,7.67
2017-11-25T21:27:17.453Z,7.10
2017-11-25T21:29:45.713Z,7.50
2017-11-25T21:32:14.028Z,7.93
2017-11-25T21:34:42.357Z,9.00
2017-11-25T21:37:10.657Z,6.80
2017-11-25T21:39:38.933Z,7.50
2017-11-25T21:42:07.236Z,7.27
2017-11-25T21:44:35.650Z,4.40
2017-11-25T21:47:04.867Z,4.88
2017-11-25T21:49:33.115Z,4.83
2017-11-25T21:52:01.425Z,5.43
2017-11-25T21:54:29.688Z,5.70
2017-11-25T21:56:57.991Z,7.17
2017-11-25T21:59:26.356Z,5.30
2017-11-25T22:01:54.616Z,6.35
2017-11-25T22:04:22.905Z,5.63
2017-11-25T22:06:51.214Z,6.37
2017-11-25T22:09:19.491Z,6.85
2017-11-25T22:11:47.781Z,6.90
2017-11-25T22:14:16.100Z,7.10
2017-11-25T22:16:44.552Z,7.77
2017-11-25T22:19:12.846Z,7.90
2017-11-25T22:21:41.093Z,6.80
2017-11-25T22:24:10.027Z,8.90
2017-11-25T22:26:38.331Z,7.23
2017-11-25T22:29:06.633Z,7.60
2017-11-25T22:31:35.316Z,7.23
2017-11-25T22:34:03.565Z,8.90
2017-11-25T22:36:31.888Z,8.73
2017-11-25T22:39:00.142Z,9.00
2017-11-25T22:41:28.480Z,8.37
2017-11-25T22:43:56.741Z,8.87
2017-11-25T22:46:25.036Z,8.00
2017-11-25T22:48:53.326Z,7.77
2017-11-25T22:51:21.591Z,8.00
2017-11-25T22:53:49.957Z,7.80
2017-11-25T22:56:18.252Z,8.18
2017-11-25T22:58:46.527Z,7.50
2017-11-25T23:01:14.786Z,7.33
2017-11-25T23:03:43.110Z,8.47
2017-11-25T23:06:11.504Z,8.70
2017-11-25T23:08:39.769Z,7.23
2017-11-25T23:11:08.030Z,6.73
2017-11-25T23:13:36.361Z,8.20
2017-11-25T23:16:05.258Z,7.60
2017-11-25T23:18:33.523Z,7.20
2017-11-25T23:21:02.079Z,7.45
2017-11-25T23:23:30.288Z,7.00
2017-11-25T23:25:58.640Z,6.67
2017-11-25T23:28:26.895Z,6.50
2017-11-25T23:30:55.217Z,6.23
2017-11-25T23:33:23.663Z,6.90
2017-11-25T23:35:51.948Z,6.90
2017-11-25T23:38:20.245Z,7.82
2017-11-25T23:40:48.505Z,8.07
2017-11-25T23:43:16.806Z,6.72
2017-11-25T23:45:45.069Z,6.60
2017-11-25T23:48:13.355Z,6.97
2017-11-25T23:50:42.422Z,6.73
2017-11-25T23:53:10.698Z,6.25
2017-11-25T23:55:39.083Z,6.23
2017-11-25T23:58:07.454Z,6.30
